Aviation Digital Data Service (ADDS)

Output produced by METARs form (1216 UTC 28 March 2015)
found at http://aviationweather.gov/adds/metars/
 
KCLT 281137Z 2812/2912 34007KT P6SM FEW060 FEW250 
     FM281500 32010G17KT P6SM FEW250 
     FM290000 34007KT P6SM FEW250 
     FM290600 01003KT P6SM SKC